sensor_id;sensor_type;location;lat;lon;timestamp;P1;durP1;ratioP1;P2;durP2;ratioP2
44893;SDS011;30625;52.206;21.030;2023-03-31T00:00:32;0.55;;;0.30;;
44893;SDS011;30625;52.206;21.030;2023-03-31T00:02:58;0.90;;;0.75;;
44893;SDS011;30625;52.206;21.030;2023-03-31T00:05:24;2.58;;;2.38;;
44893;SDS011;30625;52.206;21.030;2023-03-31T00:07:53;1.70;;;0.82;;
44893;SDS011;30625;52.206;21.030;2023-03-31T00:10:25;2.05;;;1.30;;
44893;SDS011;30625;52.206;21.030;2023-03-31T00:12:51;1.55;;;1.15;;
44893;SDS011;30625;52.206;21.030;2023-03-31T00:15:17;0.52;;;0.43;;
44893;SDS011;30625;52.206;21.030;2023-03-31T00:17:43;1.80;;;1.25;;
44893;SDS011;30625;52.206;21.030;2023-03-31T00:20:09;0.30;;;0.17;;
44893;SDS011;30625;52.206;21.030;2023-03-31T00:22:36;0.20;;;0.20;;
44893;SDS011;30625;52.206;21.030;2023-03-31T00:25:03;0.95;;;0.70;;
44893;SDS011;30625;52.206;21.030;2023-03-31T00:27:29;1.13;;;0.47;;
44893;SDS011;30625;52.206;21.030;2023-03-31T00:29:56;1.05;;;0.95;;
44893;SDS011;30625;52.206;21.030;2023-03-31T00:32:53;1.90;;;0.70;;
44893;SDS011;30625;52.206;21.030;2023-03-31T00:35:26;1.25;;;0.95;;
44893;SDS011;30625;52.206;21.030;2023-03-31T00:37:52;1.00;;;0.90;;
44893;SDS011;30625;52.206;21.030;2023-03-31T00:40:46;0.75;;;0.63;;
44893;SDS011;30625;52.206;21.030;2023-03-31T00:43:29;2.30;;;1.70;;
44893;SDS011;30625;52.206;21.030;2023-03-31T00:46:42;5.50;;;1.15;;
44893;SDS011;30625;52.206;21.030;2023-03-31T00:49:25;3.22;;;0.95;;
44893;SDS011;30625;52.206;21.030;2023-03-31T00:51:52;0.35;;;0.35;;
44893;SDS011;30625;52.206;21.030;2023-03-31T00:54:23;0.80;;;0.77;;
44893;SDS011;30625;52.206;21.030;2023-03-31T00:56:52;24.70;;;5.45;;
44893;SDS011;30625;52.206;21.030;2023-03-31T00:59:23;2.13;;;1.92;;
44893;SDS011;30625;52.206;21.030;2023-03-31T01:01:52;1.05;;;0.77;;
44893;SDS011;30625;52.206;21.030;2023-03-31T01:04:19;1.55;;;1.45;;
44893;SDS011;30625;52.206;21.030;2023-03-31T01:06:53;1.45;;;0.80;;
44893;SDS011;30625;52.206;21.030;2023-03-31T01:09:33;1.05;;;0.68;;
44893;SDS011;30625;52.206;21.030;2023-03-31T01:12:02;2.67;;;1.35;;
44893;SDS011;30625;52.206;21.030;2023-03-31T01:14:32;0.68;;;0.52;;
44893;SDS011;30625;52.206;21.030;2023-03-31T01:16:58;0.98;;;0.88;;
44893;SDS011;30625;52.206;21.030;2023-03-31T01:19:29;0.20;;;0.17;;
44893;SDS011;30625;52.206;21.030;2023-03-31T01:22:22;0.45;;;0.40;;
44893;SDS011;30625;52.206;21.030;2023-03-31T01:25:36;0.08;;;0.08;;
44893;SDS011;30625;52.206;21.030;2023-03-31T01:27:58;0.50;;;0.50;;
44893;SDS011;30625;52.206;21.030;2023-03-31T01:33:12;0.10;;;0.10;;
44893;SDS011;30625;52.206;21.030;2023-03-31T01:38:43;1.02;;;0.93;;
44893;SDS011;30625;52.206;21.030;2023-03-31T01:46:40;0.10;;;0.10;;
44893;SDS011;30625;52.206;21.030;2023-03-31T01:52:00;32.30;;;1.25;;
44893;SDS011;30625;52.206;21.030;2023-03-31T01:54:38;1.08;;;0.95;;
44893;SDS011;30625;52.206;21.030;2023-03-31T01:57:18;1.10;;;1.00;;
44893;SDS011;30625;52.206;21.030;2023-03-31T02:00:02;0.10;;;0.10;;
44893;SDS011;30625;52.206;21.030;2023-03-31T02:02:42;1.52;;;1.17;;
44893;SDS011;30625;52.206;21.030;2023-03-31T02:05:19;1.55;;;0.93;;
44893;SDS011;30625;52.206;21.030;2023-03-31T02:07:51;1.08;;;0.75;;
44893;SDS011;30625;52.206;21.030;2023-03-31T02:10:24;2.28;;;1.08;;
44893;SDS011;30625;52.206;21.030;2023-03-31T02:12:53;0.82;;;0.77;;
44893;SDS011;30625;52.206;21.030;2023-03-31T02:15:23;0.55;;;0.47;;
44893;SDS011;30625;52.206;21.030;2023-03-31T02:17:57;0.88;;;0.52;;
44893;SDS011;30625;52.206;21.030;2023-03-31T02:20:27;0.55;;;0.47;;
44893;SDS011;30625;52.206;21.030;2023-03-31T02:22:56;0.15;;;0.15;;
44893;SDS011;30625;52.206;21.030;2023-03-31T02:27:53;1.80;;;1.45;;
44893;SDS011;30625;52.206;21.030;2023-03-31T02:30:24;2.25;;;0.73;;
44893;SDS011;30625;52.206;21.030;2023-03-31T02:33:02;0.93;;;0.47;;
44893;SDS011;30625;52.206;21.030;2023-03-31T02:35:29;0.38;;;0.30;;
44893;SDS011;30625;52.206;21.030;2023-03-31T02:37:55;0.80;;;0.80;;
44893;SDS011;30625;52.206;21.030;2023-03-31T02:40:22;0.08;;;0.08;;
44893;SDS011;30625;52.206;21.030;2023-03-31T02:42:52;0.05;;;0.05;;
44893;SDS011;30625;52.206;21.030;2023-03-31T02:48:02;0.73;;;0.35;;
44893;SDS011;30625;52.206;21.030;2023-03-31T02:50:32;0.43;;;0.40;;
44893;SDS011;30625;52.206;21.030;2023-03-31T02:53:12;0.30;;;0.28;;
44893;SDS011;30625;52.206;21.030;2023-03-31T02:55:57;0.85;;;0.57;;
44893;SDS011;30625;52.206;21.030;2023-03-31T03:01:28;0.32;;;0.28;;
44893;SDS011;30625;52.206;21.030;2023-03-31T03:04:10;1.48;;;1.38;;
44893;SDS011;30625;52.206;21.030;2023-03-31T03:06:49;0.75;;;0.75;;
44893;SDS011;30625;52.206;21.030;2023-03-31T03:12:23;2.10;;;1.20;;
44893;SDS011;30625;52.206;21.030;2023-03-31T03:15:04;0.50;;;0.50;;
44893;SDS011;30625;52.206;21.030;2023-03-31T03:20:07;0.50;;;0.22;;
44893;SDS011;30625;52.206;21.030;2023-03-31T03:22:37;0.40;;;0.30;;
44893;SDS011;30625;52.206;21.030;2023-03-31T03:25:04;0.95;;;0.73;;
44893;SDS011;30625;52.206;21.030;2023-03-31T03:27:31;0.60;;;0.60;;
44893;SDS011;30625;52.206;21.030;2023-03-31T03:29:57;2.15;;;1.80;;
44893;SDS011;30625;52.206;21.030;2023-03-31T03:32:23;0.17;;;0.10;;
44893;SDS011;30625;52.206;21.030;2023-03-31T03:34:48;0.82;;;0.57;;
44893;SDS011;30625;52.206;21.030;2023-03-31T03:37:14;2.05;;;0.70;;
44893;SDS011;30625;52.206;21.030;2023-03-31T03:39:39;0.52;;;0.43;;
44893;SDS011;30625;52.206;21.030;2023-03-31T03:42:05;0.47;;;0.47;;
44893;SDS011;30625;52.206;21.030;2023-03-31T03:44:31;0.93;;;0.85;;
44893;SDS011;30625;52.206;21.030;2023-03-31T03:46:56;0.68;;;0.47;;
44893;SDS011;30625;52.206;21.030;2023-03-31T03:49:22;0.90;;;0.65;;
44893;SDS011;30625;52.206;21.030;2023-03-31T03:51:47;1.55;;;0.93;;
44893;SDS011;30625;52.206;21.030;2023-03-31T03:54:13;0.80;;;0.75;;
44893;SDS011;30625;52.206;21.030;2023-03-31T03:56:39;0.22;;;0.17;;
44893;SDS011;30625;52.206;21.030;2023-03-31T03:59:04;4.07;;;1.10;;
44893;SDS011;30625;52.206;21.030;2023-03-31T04:01:30;0.65;;;0.52;;
44893;SDS011;30625;52.206;21.030;2023-03-31T04:03:56;0.52;;;0.45;;
44893;SDS011;30625;52.206;21.030;2023-03-31T04:06:22;1.08;;;0.82;;
44893;SDS011;30625;52.206;21.030;2023-03-31T04:08:48;0.80;;;0.65;;
44893;SDS011;30625;52.206;21.030;2023-03-31T04:11:14;1.15;;;1.05;;
44893;SDS011;30625;52.206;21.030;2023-03-31T04:13:42;0.45;;;0.45;;
44893;SDS011;30625;52.206;21.030;2023-03-31T04:16:08;0.82;;;0.65;;
44893;SDS011;30625;52.206;21.030;2023-03-31T04:18:34;1.75;;;0.52;;
44893;SDS011;30625;52.206;21.030;2023-03-31T04:21:01;2.65;;;0.68;;
44893;SDS011;30625;52.206;21.030;2023-03-31T04:23:34;1.33;;;0.93;;
44893;SDS011;30625;52.206;21.030;2023-03-31T04:28:33;0.57;;;0.52;;
44893;SDS011;30625;52.206;21.030;2023-03-31T04:31:00;0.43;;;0.25;;
44893;SDS011;30625;52.206;21.030;2023-03-31T04:33:27;0.65;;;0.63;;
44893;SDS011;30625;52.206;21.030;2023-03-31T04:35:53;0.43;;;0.30;;
44893;SDS011;30625;52.206;21.030;2023-03-31T04:38:19;0.63;;;0.52;;
44893;SDS011;30625;52.206;21.030;2023-03-31T04:40:47;2.22;;;0.65;;
44893;SDS011;30625;52.206;21.030;2023-03-31T04:43:15;0.00;;;0.00;;
44893;SDS011;30625;52.206;21.030;2023-03-31T04:45:41;1.40;;;0.75;;
44893;SDS011;30625;52.206;21.030;2023-03-31T04:48:07;1.23;;;0.82;;
44893;SDS011;30625;52.206;21.030;2023-03-31T04:50:33;0.95;;;0.80;;
44893;SDS011;30625;52.206;21.030;2023-03-31T04:52:59;0.00;;;0.00;;
44893;SDS011;30625;52.206;21.030;2023-03-31T04:55:25;0.70;;;0.70;;
44893;SDS011;30625;52.206;21.030;2023-03-31T04:57:51;1.42;;;1.33;;
44893;SDS011;30625;52.206;21.030;2023-03-31T05:00:17;0.82;;;0.70;;
44893;SDS011;30625;52.206;21.030;2023-03-31T05:05:09;0.45;;;0.43;;
44893;SDS011;30625;52.206;21.030;2023-03-31T05:07:36;0.40;;;0.40;;
44893;SDS011;30625;52.206;21.030;2023-03-31T05:10:03;0.80;;;0.60;;
44893;SDS011;30625;52.206;21.030;2023-03-31T05:12:32;2.50;;;2.30;;
44893;SDS011;30625;52.206;21.030;2023-03-31T05:14:59;0.38;;;0.32;;
44893;SDS011;30625;52.206;21.030;2023-03-31T05:19:51;1.98;;;1.10;;
44893;SDS011;30625;52.206;21.030;2023-03-31T05:22:17;0.25;;;0.25;;
44893;SDS011;30625;52.206;21.030;2023-03-31T05:24:46;0.20;;;0.13;;
44893;SDS011;30625;52.206;21.030;2023-03-31T05:27:12;0.43;;;0.38;;
44893;SDS011;30625;52.206;21.030;2023-03-31T05:29:37;0.43;;;0.43;;
44893;SDS011;30625;52.206;21.030;2023-03-31T05:32:04;1.70;;;1.30;;
44893;SDS011;30625;52.206;21.030;2023-03-31T05:34:30;0.10;;;0.10;;
44893;SDS011;30625;52.206;21.030;2023-03-31T05:36:55;0.65;;;0.65;;
44893;SDS011;30625;52.206;21.030;2023-03-31T05:39:22;1.27;;;0.65;;
44893;SDS011;30625;52.206;21.030;2023-03-31T05:41:48;9.45;;;1.88;;
44893;SDS011;30625;52.206;21.030;2023-03-31T05:44:14;0.43;;;0.43;;
44893;SDS011;30625;52.206;21.030;2023-03-31T05:46:40;2.58;;;1.70;;
44893;SDS011;30625;52.206;21.030;2023-03-31T05:49:06;0.32;;;0.30;;
44893;SDS011;30625;52.206;21.030;2023-03-31T05:51:32;1.00;;;0.93;;
44893;SDS011;30625;52.206;21.030;2023-03-31T05:53:58;0.22;;;0.22;;
44893;SDS011;30625;52.206;21.030;2023-03-31T05:56:24;4.20;;;2.08;;
44893;SDS011;30625;52.206;21.030;2023-03-31T05:58:51;0.25;;;0.20;;
44893;SDS011;30625;52.206;21.030;2023-03-31T06:01:17;0.65;;;0.65;;
44893;SDS011;30625;52.206;21.030;2023-03-31T06:03:47;0.82;;;0.75;;
44893;SDS011;30625;52.206;21.030;2023-03-31T06:06:14;2.83;;;1.55;;
44893;SDS011;30625;52.206;21.030;2023-03-31T06:08:44;0.63;;;0.52;;
44893;SDS011;30625;52.206;21.030;2023-03-31T06:11:12;5.88;;;2.78;;
44893;SDS011;30625;52.206;21.030;2023-03-31T06:13:40;0.93;;;0.88;;
44893;SDS011;30625;52.206;21.030;2023-03-31T06:16:06;1.65;;;0.75;;
44893;SDS011;30625;52.206;21.030;2023-03-31T06:18:35;0.63;;;0.63;;
44893;SDS011;30625;52.206;21.030;2023-03-31T06:21:01;0.82;;;0.80;;
44893;SDS011;30625;52.206;21.030;2023-03-31T06:23:27;1.45;;;1.08;;
44893;SDS011;30625;52.206;21.030;2023-03-31T06:25:53;0.50;;;0.45;;
44893;SDS011;30625;52.206;21.030;2023-03-31T06:28:24;1.65;;;1.25;;
44893;SDS011;30625;52.206;21.030;2023-03-31T06:30:49;5.25;;;1.30;;
44893;SDS011;30625;52.206;21.030;2023-03-31T06:33:15;1.40;;;1.23;;
44893;SDS011;30625;52.206;21.030;2023-03-31T06:35:40;2.33;;;0.88;;
44893;SDS011;30625;52.206;21.030;2023-03-31T06:38:06;0.65;;;0.55;;
44893;SDS011;30625;52.206;21.030;2023-03-31T06:40:32;0.93;;;0.57;;
44893;SDS011;30625;52.206;21.030;2023-03-31T06:43:00;2.65;;;1.38;;
44893;SDS011;30625;52.206;21.030;2023-03-31T06:45:25;3.50;;;1.98;;
44893;SDS011;30625;52.206;21.030;2023-03-31T06:47:51;0.30;;;0.20;;
44893;SDS011;30625;52.206;21.030;2023-03-31T06:50:17;0.88;;;0.75;;
44893;SDS011;30625;52.206;21.030;2023-03-31T06:52:42;1.50;;;0.70;;
44893;SDS011;30625;52.206;21.030;2023-03-31T06:55:08;0.85;;;0.77;;
44893;SDS011;30625;52.206;21.030;2023-03-31T06:57:34;1.52;;;1.35;;
44893;SDS011;30625;52.206;21.030;2023-03-31T07:00:00;4.18;;;1.98;;
44893;SDS011;30625;52.206;21.030;2023-03-31T07:02:27;0.55;;;0.55;;
44893;SDS011;30625;52.206;21.030;2023-03-31T07:04:52;2.03;;;0.93;;
44893;SDS011;30625;52.206;21.030;2023-03-31T07:07:18;1.20;;;1.02;;
44893;SDS011;30625;52.206;21.030;2023-03-31T07:09:44;0.65;;;0.45;;
44893;SDS011;30625;52.206;21.030;2023-03-31T07:12:10;0.40;;;0.40;;
44893;SDS011;30625;52.206;21.030;2023-03-31T07:14:35;6.63;;;0.85;;
44893;SDS011;30625;52.206;21.030;2023-03-31T07:17:01;0.52;;;0.50;;
44893;SDS011;30625;52.206;21.030;2023-03-31T07:21:53;3.60;;;2.38;;
44893;SDS011;30625;52.206;21.030;2023-03-31T07:24:20;1.40;;;1.27;;
44893;SDS011;30625;52.206;21.030;2023-03-31T07:29:21;0.65;;;0.65;;
44893;SDS011;30625;52.206;21.030;2023-03-31T07:31:47;0.10;;;0.10;;
44893;SDS011;30625;52.206;21.030;2023-03-31T07:34:13;0.30;;;0.30;;
44893;SDS011;30625;52.206;21.030;2023-03-31T07:36:39;2.08;;;1.83;;
44893;SDS011;30625;52.206;21.030;2023-03-31T07:39:05;9.88;;;1.77;;
44893;SDS011;30625;52.206;21.030;2023-03-31T07:43:57;1.02;;;0.95;;
44893;SDS011;30625;52.206;21.030;2023-03-31T07:46:25;0.82;;;0.68;;
44893;SDS011;30625;52.206;21.030;2023-03-31T07:48:52;1.52;;;1.38;;
44893;SDS011;30625;52.206;21.030;2023-03-31T07:51:20;2.13;;;1.70;;
44893;SDS011;30625;52.206;21.030;2023-03-31T07:53:48;2.60;;;1.13;;
44893;SDS011;30625;52.206;21.030;2023-03-31T07:56:16;27.80;;;18.27;;
44893;SDS011;30625;52.206;21.030;2023-03-31T07:58:45;27.02;;;17.30;;
44893;SDS011;30625;52.206;21.030;2023-03-31T08:01:15;26.98;;;16.27;;
44893;SDS011;30625;52.206;21.030;2023-03-31T08:03:45;24.23;;;15.25;;
44893;SDS011;30625;52.206;21.030;2023-03-31T08:06:16;24.83;;;14.88;;
44893;SDS011;30625;52.206;21.030;2023-03-31T08:08:43;24.00;;;15.60;;
44893;SDS011;30625;52.206;21.030;2023-03-31T08:11:10;24.35;;;14.88;;
44893;SDS011;30625;52.206;21.030;2023-03-31T08:13:35;20.98;;;14.32;;
44893;SDS011;30625;52.206;21.030;2023-03-31T08:16:01;19.58;;;12.93;;
44893;SDS011;30625;52.206;21.030;2023-03-31T08:18:28;24.25;;;13.90;;
44893;SDS011;30625;52.206;21.030;2023-03-31T08:20:53;21.80;;;14.27;;
44893;SDS011;30625;52.206;21.030;2023-03-31T08:23:19;21.00;;;13.82;;
44893;SDS011;30625;52.206;21.030;2023-03-31T08:25:45;26.15;;;15.45;;
44893;SDS011;30625;52.206;21.030;2023-03-31T08:28:11;20.83;;;14.05;;
44893;SDS011;30625;52.206;21.030;2023-03-31T08:30:38;23.77;;;14.88;;
44893;SDS011;30625;52.206;21.030;2023-03-31T08:33:05;20.83;;;13.70;;
44893;SDS011;30625;52.206;21.030;2023-03-31T08:35:33;22.17;;;13.98;;
44893;SDS011;30625;52.206;21.030;2023-03-31T08:37:59;21.60;;;13.52;;
44893;SDS011;30625;52.206;21.030;2023-03-31T08:40:26;19.63;;;12.52;;
44893;SDS011;30625;52.206;21.030;2023-03-31T08:42:54;20.98;;;12.23;;
44893;SDS011;30625;52.206;21.030;2023-03-31T08:45:24;18.30;;;12.02;;
44893;SDS011;30625;52.206;21.030;2023-03-31T08:47:57;18.00;;;9.85;;
44893;SDS011;30625;52.206;21.030;2023-03-31T08:50:26;19.08;;;10.77;;
44893;SDS011;30625;52.206;21.030;2023-03-31T08:55:57;15.90;;;10.57;;
44893;SDS011;30625;52.206;21.030;2023-03-31T09:06:52;20.88;;;11.40;;
44893;SDS011;30625;52.206;21.030;2023-03-31T09:12:24;19.50;;;11.07;;
44893;SDS011;30625;52.206;21.030;2023-03-31T09:14:56;14.98;;;8.38;;
44893;SDS011;30625;52.206;21.030;2023-03-31T09:20:17;14.18;;;8.15;;
44893;SDS011;30625;52.206;21.030;2023-03-31T09:22:51;16.35;;;8.18;;
44893;SDS011;30625;52.206;21.030;2023-03-31T09:25:45;14.68;;;8.10;;
44893;SDS011;30625;52.206;21.030;2023-03-31T09:28:13;13.63;;;7.63;;
44893;SDS011;30625;52.206;21.030;2023-03-31T09:30:48;14.85;;;8.45;;
44893;SDS011;30625;52.206;21.030;2023-03-31T09:35:51;12.18;;;7.70;;
44893;SDS011;30625;52.206;21.030;2023-03-31T09:40:43;16.00;;;9.20;;
44893;SDS011;30625;52.206;21.030;2023-03-31T09:43:22;15.50;;;8.00;;
44893;SDS011;30625;52.206;21.030;2023-03-31T09:45:52;11.93;;;7.60;;
44893;SDS011;30625;52.206;21.030;2023-03-31T09:48:25;14.55;;;7.78;;
44893;SDS011;30625;52.206;21.030;2023-03-31T09:50:56;12.60;;;6.57;;
44893;SDS011;30625;52.206;21.030;2023-03-31T09:53:44;13.00;;;6.30;;
44893;SDS011;30625;52.206;21.030;2023-03-31T10:01:55;10.90;;;5.28;;
44893;SDS011;30625;52.206;21.030;2023-03-31T10:04:23;10.35;;;4.93;;
44893;SDS011;30625;52.206;21.030;2023-03-31T10:06:51;9.52;;;4.57;;
44893;SDS011;30625;52.206;21.030;2023-03-31T10:09:19;8.27;;;4.45;;
44893;SDS011;30625;52.206;21.030;2023-03-31T10:14:40;11.77;;;4.97;;
44893;SDS011;30625;52.206;21.030;2023-03-31T10:17:13;9.38;;;4.68;;
44893;SDS011;30625;52.206;21.030;2023-03-31T10:22:44;14.00;;;4.13;;
44893;SDS011;30625;52.206;21.030;2023-03-31T10:27:40;11.55;;;3.85;;
44893;SDS011;30625;52.206;21.030;2023-03-31T10:30:16;12.45;;;3.63;;
44893;SDS011;30625;52.206;21.030;2023-03-31T10:32:46;10.50;;;4.07;;
44893;SDS011;30625;52.206;21.030;2023-03-31T10:37:58;10.65;;;3.58;;
44893;SDS011;30625;52.206;21.030;2023-03-31T10:40:27;8.18;;;3.20;;
44893;SDS011;30625;52.206;21.030;2023-03-31T10:43:00;10.68;;;3.67;;
44893;SDS011;30625;52.206;21.030;2023-03-31T10:45:30;8.93;;;3.35;;
44893;SDS011;30625;52.206;21.030;2023-03-31T10:48:08;7.03;;;3.05;;
44893;SDS011;30625;52.206;21.030;2023-03-31T10:51:15;8.30;;;3.55;;
44893;SDS011;30625;52.206;21.030;2023-03-31T10:53:50;11.38;;;3.65;;
44893;SDS011;30625;52.206;21.030;2023-03-31T11:04:18;8.45;;;2.35;;
44893;SDS011;30625;52.206;21.030;2023-03-31T11:12:41;7.70;;;2.80;;
44893;SDS011;30625;52.206;21.030;2023-03-31T11:18:34;9.40;;;3.15;;
44893;SDS011;30625;52.206;21.030;2023-03-31T11:39:41;8.65;;;2.85;;
44893;SDS011;30625;52.206;21.030;2023-03-31T11:45:43;13.00;;;2.85;;
44893;SDS011;30625;52.206;21.030;2023-03-31T11:48:21;7.47;;;2.67;;
44893;SDS011;30625;52.206;21.030;2023-03-31T11:50:58;7.75;;;2.88;;
44893;SDS011;30625;52.206;21.030;2023-03-31T11:53:28;9.45;;;2.63;;
44893;SDS011;30625;52.206;21.030;2023-03-31T11:55:57;9.48;;;3.00;;
44893;SDS011;30625;52.206;21.030;2023-03-31T11:58:29;10.13;;;2.63;;
44893;SDS011;30625;52.206;21.030;2023-03-31T12:01:23;7.00;;;2.40;;
44893;SDS011;30625;52.206;21.030;2023-03-31T12:06:39;7.13;;;2.28;;
44893;SDS011;30625;52.206;21.030;2023-03-31T12:09:10;10.93;;;2.97;;
44893;SDS011;30625;52.206;21.030;2023-03-31T12:12:04;9.25;;;3.03;;
44893;SDS011;30625;52.206;21.030;2023-03-31T12:17:25;8.77;;;3.03;;
44893;SDS011;30625;52.206;21.030;2023-03-31T12:19:55;7.18;;;2.85;;
44893;SDS011;30625;52.206;21.030;2023-03-31T12:22:25;9.70;;;2.83;;
44893;SDS011;30625;52.206;21.030;2023-03-31T12:24:52;9.13;;;2.67;;
44893;SDS011;30625;52.206;21.030;2023-03-31T12:32:31;9.25;;;3.00;;
44893;SDS011;30625;52.206;21.030;2023-03-31T12:41:30;6.82;;;2.75;;
44893;SDS011;30625;52.206;21.030;2023-03-31T12:46:52;5.97;;;2.60;;
44893;SDS011;30625;52.206;21.030;2023-03-31T12:50:26;7.97;;;2.83;;
44893;SDS011;30625;52.206;21.030;2023-03-31T12:58:31;7.13;;;2.85;;
44893;SDS011;30625;52.206;21.030;2023-03-31T13:08:56;7.68;;;2.33;;
44893;SDS011;30625;52.206;21.030;2023-03-31T13:14:11;4.93;;;2.25;;
44893;SDS011;30625;52.206;21.030;2023-03-31T13:16:46;7.47;;;1.92;;
44893;SDS011;30625;52.206;21.030;2023-03-31T13:21:54;6.45;;;2.17;;
44893;SDS011;30625;52.206;21.030;2023-03-31T13:24:22;6.75;;;2.63;;
44893;SDS011;30625;52.206;21.030;2023-03-31T13:26:50;7.55;;;2.30;;
44893;SDS011;30625;52.206;21.030;2023-03-31T13:34:38;8.43;;;3.13;;
44893;SDS011;30625;52.206;21.030;2023-03-31T14:00:19;12.38;;;4.45;;
44893;SDS011;30625;52.206;21.030;2023-03-31T14:02:52;11.85;;;4.75;;
44893;SDS011;30625;52.206;21.030;2023-03-31T14:05:29;10.27;;;4.15;;
44893;SDS011;30625;52.206;21.030;2023-03-31T14:08:10;9.68;;;4.15;;
44893;SDS011;30625;52.206;21.030;2023-03-31T14:10:42;9.90;;;3.00;;
44893;SDS011;30625;52.206;21.030;2023-03-31T14:13:18;11.80;;;3.90;;
44893;SDS011;30625;52.206;21.030;2023-03-31T14:15:49;10.45;;;3.25;;
44893;SDS011;30625;52.206;21.030;2023-03-31T14:18:30;6.60;;;2.70;;
44893;SDS011;30625;52.206;21.030;2023-03-31T14:31:54;7.70;;;2.33;;
44893;SDS011;30625;52.206;21.030;2023-03-31T14:37:25;8.77;;;2.65;;
44893;SDS011;30625;52.206;21.030;2023-03-31T14:39:53;5.88;;;2.03;;
44893;SDS011;30625;52.206;21.030;2023-03-31T14:42:21;6.82;;;2.72;;
44893;SDS011;30625;52.206;21.030;2023-03-31T14:44:56;7.28;;;2.35;;
44893;SDS011;30625;52.206;21.030;2023-03-31T14:47:26;6.90;;;2.20;;
44893;SDS011;30625;52.206;21.030;2023-03-31T14:50:12;9.25;;;2.67;;
44893;SDS011;30625;52.206;21.030;2023-03-31T14:52:45;6.18;;;2.20;;
44893;SDS011;30625;52.206;21.030;2023-03-31T14:55:16;8.20;;;2.67;;
44893;SDS011;30625;52.206;21.030;2023-03-31T14:57:46;8.30;;;2.50;;
44893;SDS011;30625;52.206;21.030;2023-03-31T15:00:14;5.63;;;2.15;;
44893;SDS011;30625;52.206;21.030;2023-03-31T15:02:54;6.25;;;2.67;;
44893;SDS011;30625;52.206;21.030;2023-03-31T15:07:59;12.93;;;5.00;;
44893;SDS011;30625;52.206;21.030;2023-03-31T15:10:38;14.73;;;4.75;;
44893;SDS011;30625;52.206;21.030;2023-03-31T15:13:07;14.00;;;6.15;;
44893;SDS011;30625;52.206;21.030;2023-03-31T15:15:35;14.68;;;6.20;;
44893;SDS011;30625;52.206;21.030;2023-03-31T15:18:00;16.48;;;5.03;;
44893;SDS011;30625;52.206;21.030;2023-03-31T15:22:55;14.10;;;4.60;;
44893;SDS011;30625;52.206;21.030;2023-03-31T15:25:27;11.98;;;4.40;;
44893;SDS011;30625;52.206;21.030;2023-03-31T15:28:02;10.35;;;4.65;;
44893;SDS011;30625;52.206;21.030;2023-03-31T15:30:31;7.88;;;4.07;;
44893;SDS011;30625;52.206;21.030;2023-03-31T15:32:57;10.48;;;4.07;;
44893;SDS011;30625;52.206;21.030;2023-03-31T15:37:55;8.18;;;3.00;;
44893;SDS011;30625;52.206;21.030;2023-03-31T15:43:02;4.38;;;2.53;;
44893;SDS011;30625;52.206;21.030;2023-03-31T15:48:18;5.53;;;2.50;;
44893;SDS011;30625;52.206;21.030;2023-03-31T15:50:50;4.85;;;2.30;;
44893;SDS011;30625;52.206;21.030;2023-03-31T15:55:55;6.80;;;2.58;;
44893;SDS011;30625;52.206;21.030;2023-03-31T15:58:24;4.55;;;2.40;;
44893;SDS011;30625;52.206;21.030;2023-03-31T16:01:10;6.35;;;2.28;;
44893;SDS011;30625;52.206;21.030;2023-03-31T16:03:39;4.45;;;2.33;;
44893;SDS011;30625;52.206;21.030;2023-03-31T16:08:38;4.35;;;2.25;;
44893;SDS011;30625;52.206;21.030;2023-03-31T16:11:11;5.55;;;2.60;;
44893;SDS011;30625;52.206;21.030;2023-03-31T16:13:42;4.68;;;2.20;;
44893;SDS011;30625;52.206;21.030;2023-03-31T16:16:11;6.30;;;2.40;;
44893;SDS011;30625;52.206;21.030;2023-03-31T16:18:43;6.90;;;2.40;;
44893;SDS011;30625;52.206;21.030;2023-03-31T16:21:18;3.40;;;1.60;;
44893;SDS011;30625;52.206;21.030;2023-03-31T16:23:53;4.85;;;1.50;;
44893;SDS011;30625;52.206;21.030;2023-03-31T16:26:22;3.55;;;1.50;;
44893;SDS011;30625;52.206;21.030;2023-03-31T16:28:50;3.95;;;1.42;;
44893;SDS011;30625;52.206;21.030;2023-03-31T16:31:27;4.95;;;1.98;;
44893;SDS011;30625;52.206;21.030;2023-03-31T16:33:55;6.40;;;1.80;;
44893;SDS011;30625;52.206;21.030;2023-03-31T16:36:21;4.75;;;1.85;;
44893;SDS011;30625;52.206;21.030;2023-03-31T16:38:47;5.43;;;2.15;;
44893;SDS011;30625;52.206;21.030;2023-03-31T16:41:16;4.28;;;1.30;;
44893;SDS011;30625;52.206;21.030;2023-03-31T16:43:43;6.00;;;1.77;;
44893;SDS011;30625;52.206;21.030;2023-03-31T16:46:10;5.88;;;2.33;;
44893;SDS011;30625;52.206;21.030;2023-03-31T16:48:36;5.07;;;2.00;;
44893;SDS011;30625;52.206;21.030;2023-03-31T16:51:02;6.05;;;2.00;;
44893;SDS011;30625;52.206;21.030;2023-03-31T16:53:32;5.60;;;2.45;;
44893;SDS011;30625;52.206;21.030;2023-03-31T16:56:00;5.38;;;2.17;;
44893;SDS011;30625;52.206;21.030;2023-03-31T16:58:26;3.85;;;1.77;;
44893;SDS011;30625;52.206;21.030;2023-03-31T17:00:55;5.68;;;1.80;;
44893;SDS011;30625;52.206;21.030;2023-03-31T17:03:22;5.03;;;1.98;;
44893;SDS011;30625;52.206;21.030;2023-03-31T17:08:17;7.25;;;2.17;;
44893;SDS011;30625;52.206;21.030;2023-03-31T17:13:23;5.18;;;2.50;;
44893;SDS011;30625;52.206;21.030;2023-03-31T17:15:51;5.55;;;2.38;;
44893;SDS011;30625;52.206;21.030;2023-03-31T17:18:17;5.38;;;2.30;;
44893;SDS011;30625;52.206;21.030;2023-03-31T17:20:43;7.43;;;2.97;;
44893;SDS011;30625;52.206;21.030;2023-03-31T17:23:09;9.70;;;3.33;;
44893;SDS011;30625;52.206;21.030;2023-03-31T17:25:37;7.07;;;3.60;;
44893;SDS011;30625;52.206;21.030;2023-03-31T17:28:22;7.22;;;3.33;;
44893;SDS011;30625;52.206;21.030;2023-03-31T17:30:48;6.68;;;3.47;;
44893;SDS011;30625;52.206;21.030;2023-03-31T17:33:14;6.00;;;3.50;;
44893;SDS011;30625;52.206;21.030;2023-03-31T17:35:40;11.68;;;4.30;;
44893;SDS011;30625;52.206;21.030;2023-03-31T17:38:07;6.25;;;2.92;;
44893;SDS011;30625;52.206;21.030;2023-03-31T17:40:36;5.78;;;2.30;;
44893;SDS011;30625;52.206;21.030;2023-03-31T17:43:02;8.13;;;3.50;;
44893;SDS011;30625;52.206;21.030;2023-03-31T17:45:28;8.85;;;4.13;;
44893;SDS011;30625;52.206;21.030;2023-03-31T17:47:55;7.57;;;3.92;;
44893;SDS011;30625;52.206;21.030;2023-03-31T17:50:21;8.32;;;4.40;;
44893;SDS011;30625;52.206;21.030;2023-03-31T17:52:46;8.60;;;4.55;;
44893;SDS011;30625;52.206;21.030;2023-03-31T17:55:12;7.45;;;4.28;;
44893;SDS011;30625;52.206;21.030;2023-03-31T17:57:39;10.70;;;4.97;;
44893;SDS011;30625;52.206;21.030;2023-03-31T18:00:05;10.93;;;5.55;;
44893;SDS011;30625;52.206;21.030;2023-03-31T18:02:34;11.43;;;4.65;;
44893;SDS011;30625;52.206;21.030;2023-03-31T18:05:01;11.88;;;5.38;;
44893;SDS011;30625;52.206;21.030;2023-03-31T18:07:28;19.75;;;7.10;;
44893;SDS011;30625;52.206;21.030;2023-03-31T18:09:54;24.13;;;9.65;;
44893;SDS011;30625;52.206;21.030;2023-03-31T18:12:21;14.10;;;8.80;;
44893;SDS011;30625;52.206;21.030;2023-03-31T18:14:46;21.20;;;9.45;;
44893;SDS011;30625;52.206;21.030;2023-03-31T18:17:12;19.65;;;10.52;;
44893;SDS011;30625;52.206;21.030;2023-03-31T18:19:39;26.80;;;11.90;;
44893;SDS011;30625;52.206;21.030;2023-03-31T18:22:06;20.17;;;11.32;;
44893;SDS011;30625;52.206;21.030;2023-03-31T18:26:59;21.15;;;10.65;;
44893;SDS011;30625;52.206;21.030;2023-03-31T18:29:25;23.65;;;11.70;;
44893;SDS011;30625;52.206;21.030;2023-03-31T18:31:51;19.85;;;12.55;;
44893;SDS011;30625;52.206;21.030;2023-03-31T18:34:17;21.25;;;12.48;;